Flight Track Log - Related Links

Times and Time Zones

All times are in EDT time to prevent confusion due to time zone crossing. See the CWC409 flight status page for this flight to view local times or setup timezone preferences in your user account.

Time Position Orientation Groundspeed Altitude Reporting Facility
EDT Latitude Longitude Course Direction KTS MPH feet Rate Location/Type
Wed 06:30:00 PM 25.8008 -80.2539 94° East 184 212 800  Level Miami Center
Wed 06:30:28 PM 25.7992 -80.2261 94° East 200 230 2,000 2,087 Climbing Miami Center
Wed 06:31:32 PM 25.7442 -80.1714 138° Southeast 277 319 4,000 2,350 Climbing Miami Center
Wed 06:32:28 PM 25.6931 -80.1194 138° Southeast 278 320 6,700 1,500 Climbing Miami Center
Wed 06:33:28 PM 25.6236 -80.1428 197° South 272 313 6,900 200 Climbing Miami Center
Wed 06:34:28 PM 25.5586 -80.1547 189° South 285 328 7,100 1,200 Climbing Miami Center
Wed 06:35:28 PM 25.4842 -80.1231 159° South 285 328 9,300 1,950 Climbing Miami Center
Wed 06:36:28 PM 25.4100 -80.0658 145° Southeast 297 342 11,000 1,550 Climbing Miami Center
Wed 06:37:28 PM 25.3144 -80.0517 172° South 319 367 12,400 1,300 Climbing Miami Center
Wed 06:38:28 PM 25.2019 -80.0328 171° South 374 430 13,600 1,600 Climbing Miami Center
Wed 06:39:28 PM 25.0858 -79.9861 160° South 409 471 15,600 1,850 Climbing Miami Center
Wed 06:40:28 PM 24.9678 -79.9394 160° South 436 502 17,300 1,650 Climbing Miami Center
Wed 06:41:28 PM 24.8433 -79.8931 161° South 454 522 18,900 1,700 Climbing Miami Center
Wed 06:42:28 PM 24.7211 -79.8442 160° South 468 539 20,700 1,450 Climbing Miami Center
Wed 06:43:28 PM 24.5906 -79.7931 160° South 478 550 21,800 1,150 Climbing Miami Center
Wed 06:44:28 PM 24.4619 -79.7422 160° South 490 564 23,000 850 Climbing Miami Center
Wed 06:45:28 PM 24.3314 -79.6936 161° South 495 570 23,500 850 Climbing Miami Center
Wed 06:46:28 PM 24.2008 -79.6383 159° South 501 577 24,700 1,300 Climbing Miami Center
Wed 06:47:28 PM 24.0658 -79.5897 162° South 501 577 26,100 1,900 Climbing Miami Center
Wed 06:48:28 PM 23.9372 -79.5369 159° South 500 575 28,500 1,700 Climbing Miami Center
Wed 06:49:28 PM 23.8064 -79.4956 164° South 500 575 29,500 1,000 Climbing Miami Center
Wed 06:51:00 PM 23.6330 -79.3867 150° Southeast  Level FlightAware Approximate
Wed 06:58:00 PM 22.8242 -78.9163 156° South  Level FlightAware Approximate
Wed 06:59:00 PM 22.7050 -78.8589 156° South  Level FlightAware Approximate
Wed 07:00:00 PM 22.5858 -78.8017 156° South  Level FlightAware Approximate
Wed 07:01:00 PM 22.4665 -78.7445 156° South  Level FlightAware Approximate
Wed 07:02:00 PM 22.3472 -78.6874 156° South  Level FlightAware Approximate
Wed 07:03:00 PM 22.2279 -78.6304 156° South  Level FlightAware Approximate
Wed 07:04:00 PM 22.1086 -78.5736 156° South  Level FlightAware Approximate
Wed 07:05:00 PM 21.9893 -78.5168 156° South  Level FlightAware Approximate
Wed 07:06:00 PM 21.8699 -78.4601 156° South  Level FlightAware Approximate
Wed 07:07:00 PM 21.7506 -78.4035 156° South  Level FlightAware Approximate
Wed 07:08:00 PM 21.6312 -78.3470 156° South  Level FlightAware Approximate
Wed 07:09:00 PM 21.5118 -78.2906 156° South  Level FlightAware Approximate
Wed 07:10:00 PM 21.3923 -78.2343 156° South  Level FlightAware Approximate
Wed 07:11:00 PM 21.2729 -78.1780 156° South  Level FlightAware Approximate
Wed 07:12:00 PM 21.1534 -78.1219 156° South  Level FlightAware Approximate
Wed 07:13:00 PM 21.0339 -78.0659 156° South  Level FlightAware Approximate
Wed 07:14:00 PM 20.9144 -78.0099 156° South  Level FlightAware Approximate
Wed 07:15:00 PM 20.7949 -77.9540 156° South  Level FlightAware Approximate
Wed 07:16:00 PM 20.6754 -77.8983 156° South  Level FlightAware Approximate
Wed 07:17:00 PM 20.5558 -77.8426 156° South  Level FlightAware Approximate
Wed 07:18:00 PM 20.4362 -77.7870 156° South  Level FlightAware Approximate
Wed 07:19:00 PM 20.3166 -77.7315 156° South  Level FlightAware Approximate
Wed 07:20:00 PM 20.1970 -77.6760 156° South  Level FlightAware Approximate
Wed 07:21:00 PM 20.0774 -77.6207 157° South  Level FlightAware Approximate
Wed 07:22:00 PM 19.9577 -77.5654 157° South  Level FlightAware Approximate
Wed 07:23:00 PM 19.8381 -77.5102 157° South  Level FlightAware Approximate
Wed 07:24:00 PM 19.7184 -77.4552 157° South  Level FlightAware Approximate
Wed 07:25:00 PM 19.5987 -77.4001 157° South  Level FlightAware Approximate
Wed 07:26:00 PM 19.4790 -77.3452 157° South  Level FlightAware Approximate
Wed 07:27:00 PM 19.3576 -77.2948 161° South  Level FlightAware Approximate
Wed 07:28:00 PM 19.2345 -77.2493 161° South  Level FlightAware Approximate
Wed 07:29:00 PM 19.1113 -77.2039 161° South  Level FlightAware Approximate
Wed 07:30:00 PM 18.9881 -77.1585 161° South  Level FlightAware Approximate
Wed 07:31:00 PM 18.8650 -77.1132 161° South  Level FlightAware Approximate
Wed 07:32:00 PM 18.7418 -77.0679 161° South  Level FlightAware Approximate
Wed 07:33:00 PM 18.6185 -77.0227 161° South  Level FlightAware Approximate
Wed 07:34:00 PM 18.4953 -76.9776 161° South  Level FlightAware Approximate
Wed 07:35:00 PM 18.3721 -76.9326 161° South  Level FlightAware Approximate
Wed 07:36:00 PM 18.2489 -76.8876 161° South  Level FlightAware Approximate
Wed 07:37:00 PM 18.1256 -76.8427 161° South  Level FlightAware Approximate
Wed 07:38:00 PM 18.0023 -76.7978 161° South  Level FlightAware Approximate
Wed 07:39:00 PM 17.8862 -76.7398 140° Southeast  Level FlightAware Approximate
Wed 07:40:00 PM 17.7862 -76.6518 140° Southeast  Level FlightAware Approximate
Wed 07:41:00 PM 17.6862 -76.5640 140° Southeast  Level FlightAware Approximate
Wed 07:42:00 PM 17.5861 -76.4762 140° Southeast  Level FlightAware Approximate
Wed 07:43:00 PM 17.4860 -76.3885 140° Southeast  Level FlightAware Approximate
Wed 07:44:00 PM 17.3859 -76.3009 140° Southeast  Level FlightAware Approximate
Wed 07:45:00 PM 17.2857 -76.2134 140° Southeast  Level FlightAware Approximate
Wed 07:46:00 PM 17.1855 -76.1260 140° Southeast  Level FlightAware Approximate
Wed 07:47:00 PM 17.0852 -76.0387 140° Southeast  Level FlightAware Approximate
Wed 07:48:00 PM 16.9849 -75.9515 140° Southeast  Level FlightAware Approximate
Wed 07:49:00 PM 16.8846 -75.8644 140° Southeast  Level FlightAware Approximate
Wed 07:50:00 PM 16.7843 -75.7774 140° Southeast  Level FlightAware Approximate
Wed 07:51:00 PM 16.6838 -75.6904 140° Southeast  Level FlightAware Approximate
Wed 07:52:00 PM 16.5834 -75.6036 140° Southeast  Level FlightAware Approximate
Wed 07:53:00 PM 16.4829 -75.5169 140° Southeast  Level FlightAware Approximate
Wed 07:54:00 PM 16.3824 -75.4302 140° Southeast  Level FlightAware Approximate
Wed 07:55:00 PM 16.2819 -75.3436 140° Southeast  Level FlightAware Approximate
Wed 07:56:00 PM 16.1813 -75.2571 140° Southeast  Level FlightAware Approximate
Wed 07:57:00 PM 16.0807 -75.1708 140° Southeast  Level FlightAware Approximate
Wed 07:58:00 PM 15.9800 -75.0844 140° Southeast  Level FlightAware Approximate
Wed 07:59:00 PM 15.8793 -74.9982 141° Southeast  Level FlightAware Approximate
Wed 08:00:00 PM 15.7786 -74.9121 141° Southeast  Level FlightAware Approximate
Wed 08:01:00 PM 15.6779 -74.8260 141° Southeast  Level FlightAware Approximate
Wed 08:02:00 PM 15.5771 -74.7401 141° Southeast  Level FlightAware Approximate
Wed 08:03:00 PM 15.4763 -74.6542 141° Southeast  Level FlightAware Approximate
Wed 08:04:00 PM 15.3754 -74.5684 141° Southeast  Level FlightAware Approximate
Wed 08:05:00 PM 15.2745 -74.4827 141° Southeast  Level FlightAware Approximate
Wed 08:06:00 PM 15.1736 -74.3971 141° Southeast  Level FlightAware Approximate
Wed 08:07:00 PM 15.0727 -74.3115 141° Southeast  Level FlightAware Approximate
Wed 08:08:00 PM 14.9709 -74.2270 143° Southeast  Level FlightAware Approximate
Wed 08:09:00 PM 14.8673 -74.1451 143° Southeast  Level FlightAware Approximate
Wed 08:10:00 PM 14.7636 -74.0633 143° Southeast  Level FlightAware Approximate
Wed 08:11:00 PM 14.6603 -73.9809 141° Southeast  Level FlightAware Approximate
Wed 08:12:00 PM 14.5586 -73.8966 141° Southeast  Level FlightAware Approximate
Wed 08:13:00 PM 14.4568 -73.8123 141° Southeast  Level FlightAware Approximate
Wed 08:14:00 PM 14.3550 -73.7281 141° Southeast  Level FlightAware Approximate
Wed 08:15:00 PM 14.2532 -73.6440 141° Southeast  Level FlightAware Approximate
Wed 08:16:00 PM 14.1514 -73.5599 141° Southeast  Level FlightAware Approximate
Wed 08:17:00 PM 14.0495 -73.4760 141° Southeast  Level FlightAware Approximate
Wed 08:18:00 PM 13.9476 -73.3921 141° Southeast  Level FlightAware Approximate
Wed 08:19:00 PM 13.8460 -73.3078 141° Southeast  Level FlightAware Approximate
Wed 08:20:00 PM 13.7445 -73.2234 141° Southeast  Level FlightAware Approximate
Wed 08:21:00 PM 13.6430 -73.1391 141° Southeast  Level FlightAware Approximate
Wed 08:22:00 PM 13.5415 -73.0549 141° Southeast  Level FlightAware Approximate
Wed 08:23:00 PM 13.4399 -72.9707 141° Southeast  Level FlightAware Approximate
Wed 08:24:00 PM 13.3384 -72.8866 141° Southeast  Level FlightAware Approximate
Wed 08:25:00 PM 13.2368 -72.8026 141° Southeast  Level FlightAware Approximate
Wed 08:26:00 PM 13.1351 -72.7186 141° Southeast  Level FlightAware Approximate
Wed 08:27:00 PM 13.0335 -72.6347 141° Southeast  Level FlightAware Approximate
Wed 08:28:00 PM 12.9318 -72.5509 141° Southeast  Level FlightAware Approximate
Wed 08:29:00 PM 12.8301 -72.4672 141° Southeast  Level FlightAware Approximate
Wed 08:30:00 PM 12.7283 -72.3835 141° Southeast  Level FlightAware Approximate
Wed 08:31:00 PM 12.6266 -72.2999 141° Southeast  Level FlightAware Approximate
Wed 08:32:00 PM 12.5248 -72.2163 141° Southeast  Level FlightAware Approximate
Wed 08:33:00 PM 12.4229 -72.1328 141° Southeast  Level FlightAware Approximate
Wed 08:34:00 PM 12.3211 -72.0494 141° Southeast  Level FlightAware Approximate
Wed 08:35:00 PM 12.2192 -71.9661 141° Southeast  Level FlightAware Approximate
Wed 08:36:00 PM 12.1173 -71.8828 141° Southeast  Level FlightAware Approximate
Wed 08:37:00 PM 12.0154 -71.7996 141° Southeast  Level FlightAware Approximate
Wed 08:38:00 PM 11.9135 -71.7164 141° Southeast  Level FlightAware Approximate
Wed 08:39:00 PM 11.8115 -71.6333 141° Southeast  Level FlightAware Approximate
Wed 08:40:00 PM 11.7095 -71.5503 141° Southeast  Level FlightAware Approximate
Wed 08:41:00 PM 11.6075 -71.4673 141° Southeast  Level FlightAware Approximate
Wed 08:42:00 PM 11.5055 -71.3844 141° Southeast  Level FlightAware Approximate
Wed 08:43:00 PM 11.4034 -71.3015 141° Southeast  Level FlightAware Approximate
Wed 08:44:00 PM 11.3013 -71.2187 142° Southeast  Level FlightAware Approximate
Wed 08:45:00 PM 11.1992 -71.1360 142° Southeast  Level FlightAware Approximate
Wed 08:46:00 PM 11.0971 -71.0533 142° Southeast  Level FlightAware Approximate
Wed 08:47:00 PM 10.9949 -70.9707 142° Southeast  Level FlightAware Approximate
Wed 08:48:00 PM 10.8927 -70.8881 142° Southeast  Level FlightAware Approximate
Wed 08:49:00 PM 10.7905 -70.8056 142° Southeast  Level FlightAware Approximate
Wed 08:50:00 PM 10.6883 -70.7232 142° Southeast  Level FlightAware Approximate
Wed 08:51:00 PM 10.5861 -70.6408 142° Southeast  Level FlightAware Approximate
Wed 08:52:00 PM 10.4838 -70.5584 142° Southeast  Level FlightAware Approximate
Wed 08:53:00 PM 10.3815 -70.4761 142° Southeast  Level FlightAware Approximate
Wed 08:54:00 PM 10.2792 -70.3939 142° Southeast  Level FlightAware Approximate
Wed 08:55:00 PM 10.1769 -70.3117 142° Southeast  Level FlightAware Approximate
Wed 08:56:00 PM 10.0745 -70.2296 142° Southeast  Level FlightAware Approximate
Wed 08:57:00 PM 9.9722 -70.1475 142° Southeast  Level FlightAware Approximate
Wed 08:58:00 PM 9.8698 -70.0655 142° Southeast  Level FlightAware Approximate
Wed 08:59:00 PM 9.7674 -69.9835 142° Southeast  Level FlightAware Approximate
Wed 09:00:00 PM 9.6649 -69.9016 142° Southeast  Level FlightAware Approximate
Wed 09:01:00 PM 9.5625 -69.8197 142° Southeast  Level FlightAware Approximate
Wed 09:02:00 PM 9.4600 -69.7379 142° Southeast  Level FlightAware Approximate
Wed 09:03:00 PM 9.3575 -69.6562 142° Southeast  Level FlightAware Approximate
Wed 09:04:00 PM 9.2550 -69.5744 142° Southeast  Level FlightAware Approximate
Wed 09:05:00 PM 9.1525 -69.4928 142° Southeast  Level FlightAware Approximate
Wed 09:06:00 PM 9.0500 -69.4111 142° Southeast  Level FlightAware Approximate
Wed 09:07:00 PM 8.9474 -69.3296 142° Southeast  Level FlightAware Approximate
Wed 09:08:00 PM 8.8448 -69.2480 142° Southeast  Level FlightAware Approximate
Wed 09:09:00 PM 8.7422 -69.1665 142° Southeast  Level FlightAware Approximate
Wed 09:10:00 PM 8.6396 -69.0851 142° Southeast  Level FlightAware Approximate
Wed 09:11:00 PM 8.5370 -69.0037 142° Southeast  Level FlightAware Approximate
Wed 09:12:00 PM 8.4343 -68.9223 142° Southeast  Level FlightAware Approximate
Wed 09:13:00 PM 8.3317 -68.8410 142° Southeast  Level FlightAware Approximate
Wed 09:14:00 PM 8.2290 -68.7597 142° Southeast  Level FlightAware Approximate
Wed 09:15:00 PM 8.1263 -68.6785 142° Southeast  Level FlightAware Approximate
Wed 09:16:00 PM 8.0236 -68.5973 142° Southeast  Level FlightAware Approximate
Wed 09:17:00 PM 7.9209 -68.5162 142° Southeast  Level FlightAware Approximate
Wed 09:18:00 PM 7.8181 -68.4350 142° Southeast  Level FlightAware Approximate
Wed 09:19:00 PM 7.7154 -68.3540 142° Southeast  Level FlightAware Approximate
Wed 09:20:00 PM 7.6126 -68.2729 142° Southeast  Level FlightAware Approximate
Wed 09:21:00 PM 7.5098 -68.1919 142° Southeast  Level FlightAware Approximate
Wed 09:22:00 PM 7.4070 -68.1110 142° Southeast  Level FlightAware Approximate
Wed 09:23:00 PM 7.3042 -68.0301 142° Southeast  Level FlightAware Approximate
Wed 09:24:00 PM 7.2014 -67.9492 142° Southeast  Level FlightAware Approximate
Wed 09:25:00 PM 7.0985 -67.8684 142° Southeast  Level FlightAware Approximate
Wed 09:26:00 PM 6.9956 -67.7876 142° Southeast  Level FlightAware Approximate
Wed 09:27:00 PM 6.8928 -67.7068 142° Southeast  Level FlightAware Approximate
Wed 09:28:00 PM 6.7899 -67.6261 142° Southeast  Level FlightAware Approximate
Wed 09:29:00 PM 6.6870 -67.5454 142° Southeast  Level FlightAware Approximate
Wed 09:30:00 PM 6.5841 -67.4647 142° Southeast  Level FlightAware Approximate
Wed 09:31:00 PM 6.4811 -67.3841 142° Southeast  Level FlightAware Approximate
Wed 09:32:00 PM 6.3782 -67.3035 142° Southeast  Level FlightAware Approximate
Wed 09:33:00 PM 6.2752 -67.2229 142° Southeast  Level FlightAware Approximate
Wed 09:34:00 PM 6.1723 -67.1424 142° Southeast  Level FlightAware Approximate
Wed 09:35:00 PM 6.0693 -67.0619 142° Southeast  Level FlightAware Approximate
Wed 09:36:00 PM 5.9663 -66.9814 142° Southeast  Level FlightAware Approximate
Wed 09:37:00 PM 5.8633 -66.9010 142° Southeast  Level FlightAware Approximate
Wed 09:38:00 PM 5.7603 -66.8206 142° Southeast  Level FlightAware Approximate
Wed 09:39:00 PM 5.6573 -66.7402 142° Southeast  Level FlightAware Approximate
Wed 09:40:00 PM 5.5542 -66.6598 142° Southeast  Level FlightAware Approximate
Wed 09:41:00 PM 5.4512 -66.5795 142° Southeast  Level FlightAware Approximate
Wed 09:42:00 PM 5.3481 -66.4992 142° Southeast  Level FlightAware Approximate
Wed 09:43:00 PM 5.2451 -66.4189 142° Southeast  Level FlightAware Approximate
Wed 09:44:00 PM 5.1420 -66.3387 142° Southeast  Level FlightAware Approximate
Wed 09:45:00 PM 5.0389 -66.2585 142° Southeast  Level FlightAware Approximate
Wed 09:46:00 PM 4.9358 -66.1783 142° Southeast  Level FlightAware Approximate
Wed 09:47:00 PM 4.8327 -66.0981 142° Southeast  Level FlightAware Approximate
Wed 09:48:00 PM 4.7296 -66.0180 142° Southeast  Level FlightAware Approximate
Wed 09:49:00 PM 4.6265 -65.9379 142° Southeast  Level FlightAware Approximate
Wed 09:50:00 PM 4.5233 -65.8577 142° Southeast  Level FlightAware Approximate
Wed 09:51:00 PM 4.4202 -65.7777 142° Southeast  Level FlightAware Approximate
Wed 09:52:00 PM 4.3170 -65.6976 142° Southeast  Level FlightAware Approximate
Wed 09:53:00 PM 4.2139 -65.6176 142° Southeast  Level FlightAware Approximate
Wed 09:54:00 PM 4.1107 -65.5376 142° Southeast  Level FlightAware Approximate
Wed 09:55:00 PM 4.0075 -65.4576 142° Southeast  Level FlightAware Approximate
Wed 09:56:00 PM 3.9043 -65.3776 142° Southeast  Level FlightAware Approximate
Wed 09:57:00 PM 3.8012 -65.2977 142° Southeast  Level FlightAware Approximate
Wed 09:58:00 PM 3.6979 -65.2178 142° Southeast  Level FlightAware Approximate
Wed 09:59:00 PM 3.5947 -65.1378 142° Southeast  Level FlightAware Approximate
Wed 10:00:00 PM 3.4915 -65.0580 142° Southeast  Level FlightAware Approximate
Wed 10:01:00 PM 3.3883 -64.9781 142° Southeast  Level FlightAware Approximate
Wed 10:02:00 PM 3.2851 -64.8982 142° Southeast  Level FlightAware Approximate
Wed 10:03:00 PM 3.1818 -64.8184 142° Southeast  Level FlightAware Approximate
Wed 10:04:00 PM 3.0786 -64.7385 142° Southeast  Level FlightAware Approximate
Wed 10:05:00 PM 2.9754 -64.6587 142° Southeast  Level FlightAware Approximate
Wed 10:06:00 PM 2.8721 -64.5789 142° Southeast  Level FlightAware Approximate
Wed 10:07:00 PM 2.7689 -64.4992 142° Southeast  Level FlightAware Approximate
Wed 10:08:00 PM 2.6656 -64.4194 142° Southeast  Level FlightAware Approximate
Wed 10:09:00 PM 2.5623 -64.3397 142° Southeast  Level FlightAware Approximate
Wed 10:10:00 PM 2.4591 -64.2599 142° Southeast  Level FlightAware Approximate
Wed 10:11:00 PM 2.3558 -64.1802 142° Southeast  Level FlightAware Approximate
Wed 10:12:00 PM 2.2525 -64.1005 142° Southeast  Level FlightAware Approximate
Wed 10:13:00 PM 2.1492 -64.0208 142° Southeast  Level FlightAware Approximate
Wed 10:14:00 PM 2.0459 -63.9411 142° Southeast  Level FlightAware Approximate
Wed 10:15:00 PM 1.9426 -63.8614 142° Southeast  Level FlightAware Approximate
Wed 10:16:00 PM 1.8393 -63.7817 142° Southeast  Level FlightAware Approximate
Wed 10:17:00 PM 1.7360 -63.7020 142° Southeast  Level FlightAware Approximate
Wed 10:18:00 PM 1.6327 -63.6224 142° Southeast  Level FlightAware Approximate
Wed 10:19:00 PM 1.5294 -63.5427 142° Southeast  Level FlightAware Approximate
Wed 10:20:00 PM 1.4261 -63.4631 142° Southeast  Level FlightAware Approximate
Wed 10:21:00 PM 1.3228 -63.3835 142° Southeast  Level FlightAware Approximate
Wed 10:22:00 PM 1.2195 -63.3038 142° Southeast  Level FlightAware Approximate
Wed 10:23:00 PM 1.1162 -63.2242 142° Southeast  Level FlightAware Approximate
Wed 10:24:00 PM 1.0129 -63.1446 142° Southeast  Level FlightAware Approximate
Wed 10:25:00 PM 0.9095 -63.0650 142° Southeast  Level FlightAware Approximate
Wed 10:26:00 PM 0.8062 -62.9854 142° Southeast  Level FlightAware Approximate
Wed 10:27:00 PM 0.7029 -62.9058 142° Southeast  Level FlightAware Approximate
Wed 10:28:00 PM 0.5996 -62.8262 142° Southeast  Level FlightAware Approximate
Wed 10:29:00 PM 0.4962 -62.7466 142° Southeast  Level FlightAware Approximate
Wed 10:30:00 PM 0.3929 -62.6670 142° Southeast  Level FlightAware Approximate
Wed 10:31:00 PM 0.2896 -62.5874 142° Southeast  Level FlightAware Approximate
Wed 10:32:00 PM 0.1863 -62.5078 142° Southeast  Level FlightAware Approximate
Wed 10:33:00 PM 0.0829 -62.4282 142° Southeast  Level FlightAware Approximate
Wed 10:34:00 PM -0.0204 -62.3486 142° Southeast  Level FlightAware Approximate
Wed 10:35:00 PM -0.1237 -62.2691 142° Southeast  Level FlightAware Approximate
Wed 10:36:00 PM -0.2271 -62.1895 142° Southeast  Level FlightAware Approximate
Wed 10:37:00 PM -0.3304 -62.1099 142° Southeast  Level FlightAware Approximate
Wed 10:38:00 PM -0.4337 -62.0303 142° Southeast  Level FlightAware Approximate
Wed 10:39:00 PM -0.5371 -61.9507 142° Southeast  Level FlightAware Approximate
Wed 10:40:00 PM -0.6404 -61.8711 142° Southeast  Level FlightAware Approximate
Wed 10:41:00 PM -0.7437 -61.7915 142° Southeast  Level FlightAware Approximate
Wed 10:42:00 PM -0.8470 -61.7119 142° Southeast  Level FlightAware Approximate
Wed 10:43:00 PM -0.9504 -61.6323 142° Southeast  Level FlightAware Approximate
Wed 10:44:00 PM -1.0537 -61.5527 142° Southeast  Level FlightAware Approximate
Wed 10:45:00 PM -1.1570 -61.4730 142° Southeast  Level FlightAware Approximate
Wed 10:46:00 PM -1.2603 -61.3934 142° Southeast  Level FlightAware Approximate
Wed 10:47:00 PM -1.3644 -61.3150 144° Southeast  Level FlightAware Approximate
Wed 10:48:00 PM -1.4696 -61.2378 144° Southeast  Level FlightAware Approximate
Wed 10:49:00 PM -1.5738 -61.1595 135° Southeast  Level FlightAware Approximate
Wed 10:50:00 PM -1.6794 -61.0832 144° Southeast  Level FlightAware Approximate
Wed 10:51:00 PM -1.7848 -61.0065 144° Southeast  Level FlightAware Approximate
Wed 10:52:00 PM -1.8872 -60.9257 141° Southeast  Level FlightAware Approximate
Wed 10:53:00 PM -1.9881 -60.8430 141° Southeast  Level FlightAware Approximate
Wed 10:54:00 PM -2.0907 -60.7624 142° Southeast  Level FlightAware Approximate
Wed 10:55:00 PM -2.1934 -60.6820 142° Southeast  Level FlightAware Approximate
Wed 10:56:00 PM -2.2962 -60.6016 142° Southeast  Level FlightAware Approximate
Wed 10:57:00 PM -2.3991 -60.5215 143° Southeast  Level FlightAware Approximate
Wed 10:58:00 PM -2.5035 -60.4432 143° Southeast  Level FlightAware Approximate
Wed 10:59:00 PM -2.6089 -60.3663 144° Southeast  Level FlightAware Approximate
Wed 11:00:00 PM -2.7143 -60.2893 143° Southeast  Level FlightAware Approximate
Wed 11:01:00 PM -2.8187 -60.2110 143° Southeast  Level FlightAware Approximate
Wed 11:02:00 PM -2.9228 -60.1329 143° Southeast  Level FlightAware Approximate
Wed 11:03:00 PM -3.0167 -60.0500 135° Southeast  Level FlightAware Approximate
Wed 11:04:00 PM -3.0386 -60.0497 135° Southeast  Level Estimated
Wed 11:05:00 PM -3.0386 -60.0497 135° Southeast  Level Estimated
Wed 11:06:00 PM -3.0386 -60.0497 135° Southeast  Level Estimated
Wed 11:07:00 PM -3.0386 -60.0497 135° Southeast  Level Estimated
Wed 11:08:00 PM -3.0386 -60.0497 135° Southeast  Level Estimated
Wed 11:09:00 PM -3.0386 -60.0497 135° Southeast  Level Estimated
Wed 11:10:00 PM -3.0386 -60.0497 135° Southeast  Level Estimated
Wed 11:11:00 PM -3.0386 -60.0497 135° Southeast  Level Estimated
Wed 11:12:00 PM -3.0386 -60.0497 135° Southeast  Level Estimated
Wed 11:13:00 PM -3.0386 -60.0497 135° Southeast  Level Estimated
Wed 11:14:00 PM -3.0386 -60.0497 135° Southeast  Level Estimated

Login

Don't have an account? Register now (free) for customized features, flight alerts, and more!